Time;durP1;ratioP1;P1;durP2;ratioP2;P2;SDS_P1;SDS_P2;PMS_P1;PMS_P2;Temp;Humidity;BMP_temperature;BMP_pressure;BME280_temperature;BME280_humidity;BME280_pressure;Samples;Min_cycle;Max_cycle;Signal;HPM_P1;HPM_P2
2023/11/21 00:00:52;;;;;;;18.60;9.03;;;7.30;99.90;;;;;;5071267;28;20207;-82
2023/11/21 00:03:19;;;;;;;19.93;9.83;;;7.30;99.90;;;;;;5076181;28;20295;-81
2023/11/21 00:05:47;;;;;;;23.33;10.50;;;7.40;99.90;;;;;;5072577;28;20677;-80
2023/11/21 00:08:14;;;;;;;18.33;8.93;;;7.40;99.90;;;;;;5081552;28;20268;-81
2023/11/21 00:10:41;;;;;;;23.13;10.50;;;7.50;99.90;;;;;;5071914;28;20214;-81
2023/11/21 00:13:08;;;;;;;20.30;10.57;;;7.40;99.90;;;;;;5078700;28;20198;-80
2023/11/21 00:15:35;;;;;;;21.13;10.33;;;7.40;99.90;;;;;;5073335;28;20235;-81
2023/11/21 00:18:01;;;;;;;18.27;10.30;;;7.50;99.90;;;;;;5078594;28;20219;-80
2023/11/21 00:20:28;;;;;;;23.53;10.57;;;7.50;99.90;;;;;;5077715;28;20202;-80
2023/11/21 00:22:56;;;;;;;18.87;10.33;;;7.50;99.90;;;;;;5070360;28;20212;-80
2023/11/21 00:25:24;;;;;;;21.80;10.83;;;7.60;99.90;;;;;;5071289;28;20209;-80
2023/11/21 00:27:51;;;;;;;20.83;10.93;;;7.60;99.90;;;;;;5072380;28;20249;-80
2023/11/21 00:30:20;;;;;;;23.27;12.63;;;7.70;99.90;;;;;;5080316;28;20289;-81
2023/11/21 00:32:46;;;;;;;21.90;11.07;;;7.70;99.90;;;;;;5077966;28;20232;-80
2023/11/21 00:35:13;;;;;;;23.27;11.27;;;7.70;99.90;;;;;;5080507;28;20569;-81
2023/11/21 00:37:40;;;;;;;26.43;12.53;;;7.80;99.90;;;;;;5070565;28;20603;-81
2023/11/21 00:40:10;;;;;;;23.87;12.73;;;7.80;99.90;;;;;;5072553;28;20199;-80
2023/11/21 00:42:36;;;;;;;22.73;12.43;;;7.70;99.90;;;;;;5070242;28;20209;-81
2023/11/21 00:45:04;;;;;;;27.80;12.10;;;7.80;99.90;;;;;;5064980;28;20293;-80
2023/11/21 00:47:31;;;;;;;23.47;12.13;;;7.80;99.90;;;;;;5071723;28;20257;-80
2023/11/21 00:49:58;;;;;;;24.10;10.50;;;7.80;99.90;;;;;;5067017;28;20697;-80
2023/11/21 00:52:25;;;;;;;27.80;13.33;;;7.80;99.90;;;;;;5071587;28;20501;-80
2023/11/21 00:54:51;;;;;;;25.03;12.33;;;7.80;99.90;;;;;;5066808;28;20230;-80
2023/11/21 00:57:20;;;;;;;26.57;12.43;;;7.80;99.90;;;;;;5075269;28;20309;-80
2023/11/21 00:59:46;;;;;;;25.77;11.97;;;7.90;99.90;;;;;;5074364;28;20205;-80
2023/11/21 01:02:13;;;;;;;23.87;12.20;;;7.80;99.90;;;;;;5070306;28;20285;-80
2023/11/21 01:04:40;;;;;;;25.90;11.80;;;7.70;99.90;;;;;;5080713;28;20217;-80
2023/11/21 01:07:07;;;;;;;25.63;12.30;;;7.70;99.90;;;;;;5070740;28;20686;-81
2023/11/21 01:09:33;;;;;;;23.37;11.40;;;7.70;99.90;;;;;;5078556;28;20199;-80
2023/11/21 01:12:00;;;;;;;24.03;12.53;;;7.70;99.90;;;;;;5067345;28;20207;-80
2023/11/21 01:14:29;;;;;;;26.63;11.70;;;7.70;99.90;;;;;;5070964;28;20202;-80
2023/11/21 01:16:55;;;;;;;24.27;10.70;;;7.90;99.90;;;;;;5070537;28;20232;-81
2023/11/21 01:19:22;;;;;;;22.70;11.77;;;7.80;99.90;;;;;;5079666;28;20833;-81
2023/11/21 01:21:49;;;;;;;20.47;10.93;;;7.80;99.90;;;;;;5073284;28;20649;-80
2023/11/21 01:24:16;;;;;;;21.87;11.57;;;7.80;99.90;;;;;;5079204;28;20220;-81
2023/11/21 01:26:43;;;;;;;26.40;13.50;;;7.80;99.90;;;;;;5075043;28;20371;-80
2023/11/21 01:29:10;;;;;;;25.17;11.77;;;7.90;99.90;;;;;;5075626;28;20202;-79
2023/11/21 01:31:38;;;;;;;31.00;12.27;;;7.90;99.90;;;;;;5070985;28;20237;-82
2023/11/21 01:34:05;;;;;;;22.50;11.87;;;7.90;99.90;;;;;;5080208;28;20335;-82
2023/11/21 01:36:33;;;;;;;26.80;12.03;;;7.90;99.90;;;;;;5077833;28;20721;-80
2023/11/21 01:39:00;;;;;;;24.47;11.67;;;8.00;99.90;;;;;;5080181;28;20225;-81
2023/11/21 01:41:28;;;;;;;24.63;12.07;;;8.00;99.90;;;;;;5071371;28;20220;-82
2023/11/21 01:43:55;;;;;;;27.97;12.03;;;8.00;99.90;;;;;;5073744;28;20252;-81
2023/11/21 01:46:22;;;;;;;23.60;12.70;;;8.00;99.90;;;;;;5071889;28;20213;-82
2023/11/21 01:48:51;;;;;;;23.40;12.33;;;8.00;99.90;;;;;;5077512;28;20225;-81
2023/11/21 01:51:19;;;;;;;24.20;12.60;;;8.00;99.90;;;;;;5079595;28;20214;-80
2023/11/21 01:53:46;;;;;;;22.70;12.47;;;8.00;99.90;;;;;;5070961;28;20210;-81
2023/11/21 01:56:14;;;;;;;24.43;12.60;;;8.00;99.90;;;;;;5078634;28;20202;-82
2023/11/21 01:58:41;;;;;;;22.87;12.57;;;8.00;99.90;;;;;;5075366;28;20249;-82
2023/11/21 02:01:08;;;;;;;24.53;12.17;;;8.00;99.90;;;;;;5067544;28;20198;-82
2023/11/21 02:03:35;;;;;;;23.97;11.93;;;8.10;99.90;;;;;;5077306;28;20210;-82
2023/11/21 02:06:03;;;;;;;28.83;12.60;;;8.10;99.90;;;;;;5075205;28;20202;-82
2023/11/21 02:08:31;;;;;;;23.27;12.40;;;8.10;99.90;;;;;;5076263;28;20826;-81
2023/11/21 02:10:58;;;;;;;24.83;12.20;;;8.00;99.90;;;;;;5079746;28;20206;-81
2023/11/21 02:13:24;;;;;;;24.17;13.27;;;8.20;99.90;;;;;;5079409;28;20794;-81
2023/11/21 02:15:54;;;;;;;22.43;11.93;;;8.10;99.90;;;;;;5078221;28;20208;-82
2023/11/21 02:18:22;;;;;;;26.27;12.33;;;8.10;99.90;;;;;;5071608;28;20227;-81
2023/11/21 02:20:48;;;;;;;26.33;13.00;;;8.10;99.90;;;;;;5071073;28;20207;-82
2023/11/21 02:23:17;;;;;;;21.47;11.63;;;8.00;99.90;;;;;;5077600;28;20216;-82
2023/11/21 02:25:44;;;;;;;25.43;11.80;;;8.00;99.90;;;;;;5074349;28;20206;-81
2023/11/21 02:28:12;;;;;;;22.17;11.20;;;8.00;99.90;;;;;;5082393;28;20720;-81
2023/11/21 02:30:39;;;;;;;22.53;11.33;;;8.00;99.90;;;;;;5085170;28;20729;-81
2023/11/21 02:33:07;;;;;;;25.40;11.90;;;8.00;99.90;;;;;;5080469;28;20222;-80
2023/11/21 02:35:34;;;;;;;20.00;11.07;;;8.00;99.90;;;;;;5074489;28;20194;-81
2023/11/21 02:38:02;;;;;;;24.60;12.10;;;8.00;99.90;;;;;;5083000;28;20317;-80
2023/11/21 02:40:30;;;;;;;23.63;11.97;;;8.00;99.90;;;;;;5077831;28;20232;-80
2023/11/21 02:42:58;;;;;;;21.07;11.03;;;8.00;99.90;;;;;;5074402;28;20210;-82
2023/11/21 02:45:25;;;;;;;23.87;11.77;;;7.90;99.90;;;;;;5082793;28;20207;-81
2023/11/21 02:47:56;;;;;;;22.23;11.40;;;7.90;99.90;;;;;;5074493;28;20214;-81
2023/11/21 02:50:23;;;;;;;25.07;12.33;;;7.90;99.90;;;;;;5079297;28;20620;-82
2023/11/21 02:52:52;;;;;;;23.07;11.47;;;7.90;99.90;;;;;;5080682;28;20203;-81
2023/11/21 02:55:19;;;;;;;25.43;13.13;;;7.80;99.90;;;;;;5071665;28;20270;-81
2023/11/21 02:57:47;;;;;;;28.50;13.33;;;7.80;99.90;;;;;;5077582;28;20231;-81
2023/11/21 03:00:14;;;;;;;28.53;14.73;;;7.80;99.90;;;;;;5078976;28;20212;-82
2023/11/21 03:02:42;;;;;;;28.43;13.67;;;7.90;99.90;;;;;;5074686;28;20572;-80
2023/11/21 03:05:09;;;;;;;27.20;13.13;;;7.90;99.90;;;;;;5077486;28;20783;-81
2023/11/21 03:07:37;;;;;;;26.17;12.97;;;7.90;99.90;;;;;;5080165;28;20705;-81
2023/11/21 03:10:05;;;;;;;33.50;14.73;;;7.90;99.90;;;;;;5079469;28;20211;-81
2023/11/21 03:12:31;;;;;;;31.27;14.37;;;7.80;99.90;;;;;;5080940;28;20222;-80
2023/11/21 03:15:01;;;;;;;26.00;13.77;;;7.70;99.90;;;;;;5080536;28;20210;-80
2023/11/21 03:17:28;;;;;;;25.17;13.50;;;7.80;99.90;;;;;;5079736;28;20229;-80
2023/11/21 03:19:57;;;;;;;28.97;14.33;;;7.80;99.90;;;;;;5084469;28;20210;-80
2023/11/21 03:22:24;;;;;;;27.47;13.30;;;7.80;99.90;;;;;;5077200;28;20249;-81
2023/11/21 03:24:51;;;;;;;30.50;14.17;;;7.80;99.90;;;;;;5073078;28;20207;-80
2023/11/21 03:27:18;;;;;;;25.00;12.87;;;7.80;99.90;;;;;;5082641;28;20226;-80
2023/11/21 03:29:44;;;;;;;30.03;14.70;;;7.80;99.90;;;;;;5075368;28;20266;-81
2023/11/21 03:32:13;;;;;;;27.73;13.57;;;7.90;99.90;;;;;;5082060;28;20632;-81
2023/11/21 03:34:56;;;;;;;32.80;13.23;;;7.80;99.90;;;;;;5082435;28;20680;-80
2023/11/21 03:37:23;;;;;;;27.60;13.40;;;7.80;99.90;;;;;;5078103;28;20788;-81
2023/11/21 03:39:50;;;;;;;28.43;15.03;;;7.80;99.90;;;;;;5082027;28;20225;-81
2023/11/21 03:42:17;;;;;;;28.43;14.17;;;7.90;99.90;;;;;;5082664;28;20211;-80
2023/11/21 03:44:47;;;;;;;28.10;15.40;;;7.80;99.90;;;;;;5083148;28;20206;-82
2023/11/21 03:47:15;;;;;;;32.57;15.70;;;7.80;99.90;;;;;;5078332;28;20227;-81
2023/11/21 03:49:42;;;;;;;29.37;14.70;;;7.80;99.90;;;;;;5080219;28;20696;-82
2023/11/21 03:52:09;;;;;;;32.33;14.97;;;7.90;99.90;;;;;;5070784;28;20202;-81
2023/11/21 03:54:37;;;;;;;32.57;15.00;;;7.80;99.90;;;;;;5067505;28;20210;-81
2023/11/21 03:57:04;;;;;;;37.50;16.33;;;7.80;99.90;;;;;;5073971;28;20231;-81
2023/11/21 03:59:31;;;;;;;33.73;16.47;;;7.80;99.90;;;;;;5070275;28;20317;-81
2023/11/21 04:01:58;;;;;;;28.40;15.23;;;7.90;99.90;;;;;;5080774;28;20202;-81
2023/11/21 04:04:26;;;;;;;30.97;15.00;;;7.90;99.90;;;;;;5076355;28;20213;-81
2023/11/21 04:06:53;;;;;;;29.07;14.97;;;7.90;99.90;;;;;;5074209;28;20226;-81
2023/11/21 04:09:20;;;;;;;27.63;14.37;;;7.90;99.90;;;;;;5078555;28;20281;-82
2023/11/21 04:11:47;;;;;;;32.47;15.37;;;7.90;99.90;;;;;;5071931;28;20224;-81
2023/11/21 04:14:14;;;;;;;30.23;15.63;;;7.90;99.90;;;;;;5078142;28;20220;-82
2023/11/21 04:16:42;;;;;;;29.40;15.73;;;7.90;99.90;;;;;;5081005;28;20237;-81
2023/11/21 04:19:10;;;;;;;28.77;15.03;;;7.90;99.90;;;;;;5074070;28;20248;-78
2023/11/21 04:21:38;;;;;;;32.53;18.93;;;7.90;99.90;;;;;;5066945;28;20289;-82
2023/11/21 04:24:06;;;;;;;39.23;18.57;;;7.90;99.90;;;;;;5082507;28;20217;-82
2023/11/21 04:26:33;;;;;;;35.00;16.03;;;7.90;99.90;;;;;;5083444;28;20210;-81
2023/11/21 04:28:59;;;;;;;35.77;17.13;;;7.90;99.90;;;;;;5074487;28;20285;-82
2023/11/21 04:31:26;;;;;;;33.70;15.73;;;7.90;99.90;;;;;;5073706;28;20231;-81
2023/11/21 04:33:53;;;;;;;33.60;17.73;;;7.90;99.90;;;;;;5075645;28;20210;-81
2023/11/21 04:36:20;;;;;;;33.43;16.00;;;7.90;99.90;;;;;;5083324;28;20829;-82
2023/11/21 04:38:48;;;;;;;31.63;15.60;;;7.90;99.90;;;;;;5082352;28;20245;-81
2023/11/21 04:41:15;;;;;;;35.20;16.00;;;7.90;99.90;;;;;;5082068;28;20265;-80
2023/11/21 04:43:43;;;;;;;37.57;19.03;;;7.90;99.90;;;;;;5073958;28;20202;-81
2023/11/21 04:46:10;;;;;;;37.47;18.67;;;7.90;99.90;;;;;;5082250;28;20228;-82
2023/11/21 04:48:37;;;;;;;40.47;19.60;;;7.90;99.90;;;;;;5073956;28;20222;-81
2023/11/21 04:51:05;;;;;;;41.17;19.27;;;8.00;99.90;;;;;;5082768;28;20657;-81
2023/11/21 04:53:32;;;;;;;43.70;19.03;;;7.90;99.90;;;;;;5083628;28;20210;-80
2023/11/21 04:56:00;;;;;;;36.90;19.03;;;7.90;99.90;;;;;;5083216;28;20206;-80
2023/11/21 04:58:26;;;;;;;37.47;18.17;;;8.00;99.90;;;;;;5083313;28;20241;-81
2023/11/21 05:00:53;;;;;;;33.67;15.13;;;7.90;99.90;;;;;;5071958;28;20235;-80
2023/11/21 05:03:20;;;;;;;40.67;18.83;;;7.90;99.90;;;;;;5078273;28;20228;-81
2023/11/21 05:05:47;;;;;;;38.43;18.07;;;7.90;99.90;;;;;;5084243;28;20217;-81
2023/11/21 05:08:14;;;;;;;38.90;17.53;;;7.90;99.90;;;;;;5073690;28;20598;-81
2023/11/21 05:10:41;;;;;;;34.37;17.10;;;8.00;99.90;;;;;;5083002;28;20206;-80
2023/11/21 05:13:10;;;;;;;38.50;18.03;;;7.90;99.90;;;;;;5078124;28;20226;-80
2023/11/21 05:15:37;;;;;;;39.17;17.00;;;7.90;99.90;;;;;;5081281;28;20237;-80
2023/11/21 05:18:05;;;;;;;38.77;18.60;;;7.90;99.90;;;;;;5075652;28;20717;-81
2023/11/21 05:20:33;;;;;;;36.60;16.23;;;7.90;99.90;;;;;;5066808;28;20218;-81
2023/11/21 05:22:59;;;;;;;38.17;16.80;;;7.90;99.90;;;;;;5074558;28;20673;-82
2023/11/21 05:25:26;;;;;;;39.03;18.03;;;7.90;99.90;;;;;;5074741;28;20408;-82
2023/11/21 05:27:54;;;;;;;35.50;17.30;;;7.90;99.90;;;;;;5082818;28;20254;-80
2023/11/21 05:30:22;;;;;;;40.43;17.70;;;7.90;99.90;;;;;;5075103;28;20352;-81
2023/11/21 05:32:49;;;;;;;41.00;17.57;;;8.00;99.90;;;;;;5074160;28;20681;-79
2023/11/21 05:35:17;;;;;;;33.67;16.20;;;7.90;99.90;;;;;;5083461;28;20210;-82
2023/11/21 05:37:45;;;;;;;36.80;16.67;;;7.90;99.90;;;;;;5075347;28;20650;-80
2023/11/21 05:40:13;;;;;;;35.87;15.77;;;7.90;99.90;;;;;;5078568;28;20234;-82
2023/11/21 05:42:41;;;;;;;37.93;15.97;;;7.90;99.90;;;;;;5074006;28;20217;-80
2023/11/21 05:45:10;;;;;;;35.20;15.33;;;7.80;99.90;;;;;;5076382;28;20206;-80
2023/11/21 05:47:41;;;;;;;33.13;15.97;;;7.90;99.90;;;;;;5074209;28;20234;-80
2023/11/21 05:50:11;;;;;;;35.37;15.70;;;7.90;99.90;;;;;;5084619;28;20199;-81
2023/11/21 05:52:38;;;;;;;39.57;17.23;;;7.90;99.90;;;;;;5075110;28;20233;-81
2023/11/21 05:55:07;;;;;;;36.40;17.33;;;7.90;99.90;;;;;;5076905;28;20206;-82
2023/11/21 05:57:36;;;;;;;31.57;16.60;;;7.90;99.90;;;;;;5074146;28;20603;-81
2023/11/21 06:00:10;;;;;;;35.83;16.07;;;7.80;99.90;;;;;;5074668;28;20593;-81
2023/11/21 06:02:39;;;;;;;36.50;16.90;;;7.90;99.90;;;;;;5084449;28;20221;-81
2023/11/21 06:05:07;;;;;;;31.77;15.53;;;7.90;99.90;;;;;;5089928;28;20210;-80
2023/11/21 06:07:33;;;;;;;31.33;16.17;;;7.90;99.90;;;;;;5081069;28;20244;-81
2023/11/21 06:10:02;;;;;;;32.83;16.07;;;7.80;99.90;;;;;;5090346;28;20205;-81
2023/11/21 06:12:29;;;;;;;34.33;16.27;;;7.90;99.90;;;;;;5089641;28;20240;-81
2023/11/21 06:14:56;;;;;;;30.53;16.07;;;7.80;99.90;;;;;;5082060;28;20319;-82
2023/11/21 06:17:24;;;;;;;32.83;15.37;;;7.90;99.90;;;;;;5089885;28;20229;-81
2023/11/21 06:19:53;;;;;;;33.97;17.10;;;7.90;99.90;;;;;;5086920;28;20230;-79
2023/11/21 06:22:21;;;;;;;32.07;16.47;;;7.90;99.90;;;;;;5075787;28;20206;-80
2023/11/21 06:24:47;;;;;;;30.30;15.10;;;7.90;99.90;;;;;;5089194;28;20209;-81
2023/11/21 06:27:15;;;;;;;34.00;15.73;;;7.90;99.90;;;;;;5081320;28;20248;-80
2023/11/21 06:29:43;;;;;;;35.00;15.83;;;7.90;99.90;;;;;;5080850;28;20199;-80
2023/11/21 06:32:10;;;;;;;35.33;17.33;;;7.90;99.90;;;;;;5081299;28;20236;-80
2023/11/21 06:34:37;;;;;;;32.73;15.77;;;7.90;99.90;;;;;;5089730;28;20251;-81
2023/11/21 06:37:05;;;;;;;31.60;15.87;;;7.90;99.90;;;;;;5090019;28;20225;-81
2023/11/21 06:39:32;;;;;;;30.77;15.43;;;7.90;99.90;;;;;;5088965;28;20240;-80
2023/11/21 06:42:00;;;;;;;33.40;15.63;;;7.90;99.90;;;;;;5089011;28;20202;-82
2023/11/21 06:44:27;;;;;;;32.77;15.53;;;7.90;99.90;;;;;;5089117;28;20209;-81
2023/11/21 06:46:54;;;;;;;33.90;15.87;;;7.90;99.90;;;;;;5089304;28;20234;-81
2023/11/21 06:49:21;;;;;;;39.53;17.13;;;7.90;99.90;;;;;;5080934;28;20293;-81
2023/11/21 06:51:48;;;;;;;34.73;16.37;;;7.90;99.90;;;;;;5077798;28;20594;-79
2023/11/21 06:54:16;;;;;;;31.37;15.33;;;7.90;99.90;;;;;;5077689;28;20207;-80
2023/11/21 06:56:43;;;;;;;42.67;23.53;;;7.90;99.90;;;;;;5078708;28;20226;-80
2023/11/21 06:59:10;;;;;;;39.27;20.97;;;8.00;99.90;;;;;;5089621;28;20225;-80
2023/11/21 07:01:39;;;;;;;35.43;17.93;;;8.00;99.90;;;;;;5080612;28;20234;-79
2023/11/21 07:04:06;;;;;;;31.90;16.23;;;8.00;99.90;;;;;;5081396;28;20265;-81
2023/11/21 07:06:33;;;;;;;31.00;14.83;;;8.00;99.90;;;;;;5089382;28;20206;-80
2023/11/21 07:09:01;;;;;;;31.73;16.03;;;8.00;99.90;;;;;;5088882;28;20284;-80
2023/11/21 07:11:29;;;;;;;34.50;16.80;;;8.00;99.90;;;;;;5088365;28;20245;-80
2023/11/21 07:13:56;;;;;;;33.13;16.27;;;7.90;99.90;;;;;;5078160;28;20212;-80
2023/11/21 07:16:23;;;;;;;31.90;16.47;;;8.00;99.90;;;;;;5077643;28;20206;-79
2023/11/21 07:18:50;;;;;;;36.70;19.17;;;7.90;99.90;;;;;;5074582;28;20203;-79
2023/11/21 07:21:17;;;;;;;31.97;16.33;;;7.90;99.90;;;;;;5073879;28;20223;-80
2023/11/21 07:23:44;;;;;;;32.27;15.13;;;7.90;99.90;;;;;;5075160;28;20210;-79
2023/11/21 07:26:12;;;;;;;29.27;12.03;;;7.90;99.90;;;;;;5076333;28;20257;-83
2023/11/21 07:28:40;;;;;;;9.13;4.30;;;7.80;99.90;;;;;;5081659;28;20320;-83
2023/11/21 07:31:07;;;;;;;4.50;3.07;;;7.60;99.90;;;;;;5074993;28;20217;-81
2023/11/21 07:33:34;;;;;;;5.03;2.53;;;7.40;99.90;;;;;;5080435;28;20230;-80
2023/11/21 07:36:00;;;;;;;3.47;2.57;;;7.30;99.90;;;;;;5068235;28;20649;-81
2023/11/21 07:38:28;;;;;;;3.87;2.57;;;7.30;99.90;;;;;;5076547;28;20894;-82
2023/11/21 07:40:55;;;;;;;4.87;2.97;;;7.20;99.90;;;;;;5080781;28;20226;-83
2023/11/21 07:43:22;;;;;;;3.60;2.47;;;7.30;99.90;;;;;;5076462;28;20285;-82
2023/11/21 07:45:50;;;;;;;5.33;3.13;;;7.20;99.90;;;;;;5078770;28;20650;-81
2023/11/21 07:48:17;;;;;;;7.90;4.27;;;7.20;99.90;;;;;;5070140;28;20234;-82
2023/11/21 07:50:46;;;;;;;7.47;4.47;;;7.10;99.90;;;;;;5074788;28;20213;-82
2023/11/21 07:53:14;;;;;;;10.77;5.03;;;7.00;99.90;;;;;;5069031;28;20206;-83
2023/11/21 07:55:41;;;;;;;9.33;4.70;;;7.10;99.90;;;;;;5083409;28;20285;-83
2023/11/21 07:58:08;;;;;;;8.73;4.93;;;7.00;99.90;;;;;;5082544;28;20236;-81
2023/11/21 08:00:35;;;;;;;10.17;5.37;;;7.00;99.90;;;;;;5083187;28;20252;-81
2023/11/21 08:03:03;;;;;;;11.83;6.03;;;7.20;99.90;;;;;;5082579;28;20206;-81
2023/11/21 08:05:29;;;;;;;10.37;5.23;;;6.90;99.90;;;;;;5065889;28;20207;-81
2023/11/21 08:07:56;;;;;;;12.87;5.57;;;6.90;99.90;;;;;;5072990;28;20305;-81
2023/11/21 08:10:23;;;;;;;11.47;5.10;;;7.10;99.90;;;;;;5080494;28;20194;-83
2023/11/21 08:12:51;;;;;;;10.73;5.30;;;6.90;99.90;;;;;;5079867;28;20228;-83
2023/11/21 08:15:18;;;;;;;12.47;5.23;;;6.90;99.90;;;;;;5083341;28;20669;-82
2023/11/21 08:17:45;;;;;;;7.43;4.13;;;6.90;99.90;;;;;;5083766;28;20309;-83
2023/11/21 08:20:16;;;;;;;11.83;4.40;;;6.80;99.90;;;;;;5082126;28;20230;-83
2023/11/21 08:22:43;;;;;;;11.67;5.27;;;6.80;99.90;;;;;;5082507;28;20558;-84
2023/11/21 08:25:10;;;;;;;10.70;5.80;;;6.80;99.90;;;;;;5082506;28;20213;-80
2023/11/21 08:27:37;;;;;;;12.87;5.50;;;6.80;99.90;;;;;;5082532;28;20633;-81
2023/11/21 08:30:05;;;;;;;14.17;6.27;;;6.70;99.90;;;;;;5082264;28;20197;-81
2023/11/21 08:32:33;;;;;;;16.60;6.90;;;6.70;99.90;;;;;;5083021;28;20786;-81
2023/11/21 08:34:59;;;;;;;16.07;7.63;;;6.70;99.90;;;;;;5083214;28;20210;-81
2023/11/21 08:37:30;;;;;;;15.57;6.90;;;6.70;99.90;;;;;;5083012;28;20604;-81
2023/11/21 08:39:59;;;;;;;15.97;6.87;;;6.70;99.90;;;;;;5073796;28;20224;-83
2023/11/21 08:42:29;;;;;;;21.00;8.57;;;6.70;99.90;;;;;;5080389;28;20238;-83
2023/11/21 08:44:57;;;;;;;19.97;8.63;;;6.70;99.90;;;;;;5072593;28;20278;-83
2023/11/21 08:47:26;;;;;;;19.90;9.63;;;6.70;99.90;;;;;;5080833;28;20234;-83
2023/11/21 08:49:53;;;;;;;17.13;7.87;;;6.70;99.90;;;;;;5079705;28;20269;-80
2023/11/21 08:52:20;;;;;;;18.60;8.17;;;6.60;99.90;;;;;;5080775;28;20224;-82
2023/11/21 08:54:48;;;;;;;20.73;8.17;;;6.60;99.90;;;;;;5079765;28;20212;-81
2023/11/21 08:57:17;;;;;;;19.03;9.03;;;6.70;99.90;;;;;;5078937;28;20276;-80
2023/11/21 08:59:43;;;;;;;17.50;7.73;;;6.70;99.90;;;;;;5061099;28;20231;-84
2023/11/21 09:02:10;;;;;;;17.77;7.50;;;6.70;99.90;;;;;;5078558;28;20198;-83
2023/11/21 09:04:37;;;;;;;17.27;6.33;;;6.70;99.90;;;;;;5080466;28;20203;-82
2023/11/21 09:07:05;;;;;;;18.60;9.87;;;6.80;99.90;;;;;;5079451;28;20218;-81
2023/11/21 09:09:31;;;;;;;16.30;7.57;;;6.70;99.90;;;;;;5071353;28;20301;-83
2023/11/21 09:12:01;;;;;;;17.33;7.67;;;6.70;99.90;;;;;;5081070;28;20218;-81
2023/11/21 09:14:28;;;;;;;20.57;8.40;;;6.70;99.90;;;;;;5082452;28;20210;-81
2023/11/21 09:16:54;;;;;;;17.80;8.60;;;6.60;99.90;;;;;;5082048;28;20233;-83
2023/11/21 09:19:21;;;;;;;18.77;7.83;;;6.60;99.90;;;;;;5078429;28;20217;-82
2023/11/21 09:21:48;;;;;;;22.57;9.07;;;6.70;99.90;;;;;;5081624;28;20202;-81
2023/11/21 09:24:15;;;;;;;21.20;9.33;;;6.70;99.90;;;;;;5081388;28;20202;-81
2023/11/21 09:26:41;;;;;;;25.17;11.53;;;6.60;99.90;;;;;;5080287;28;20209;-83
2023/11/21 09:29:10;;;;;;;26.07;12.53;;;6.50;99.90;;;;;;5080860;28;20233;-83
2023/11/21 09:31:38;;;;;;;21.70;10.10;;;6.60;99.90;;;;;;5078506;28;20202;-82
2023/11/21 09:34:06;;;;;;;25.77;11.27;;;6.60;99.90;;;;;;5081117;28;20323;-82
2023/11/21 09:36:33;;;;;;;25.13;11.17;;;6.70;99.90;;;;;;5080802;28;20198;-82
2023/11/21 09:39:02;;;;;;;22.20;11.20;;;6.80;99.90;;;;;;5073199;28;20194;-83
2023/11/21 09:41:39;;;;;;;23.80;11.37;;;6.90;99.90;;;;;;5079895;28;20237;-82
2023/11/21 09:44:14;;;;;;;26.07;12.03;;;7.00;99.90;;;;;;5073843;28;20229;-81
2023/11/21 09:46:43;;;;;;;22.43;11.10;;;7.00;99.90;;;;;;5080148;28;20310;-81
2023/11/21 09:49:12;;;;;;;21.10;10.10;;;7.10;99.90;;;;;;5079522;28;20206;-81
2023/11/21 09:51:40;;;;;;;21.00;10.70;;;7.20;99.90;;;;;;5079557;28;20236;-82
2023/11/21 09:54:09;;;;;;;20.87;9.40;;;7.20;99.90;;;;;;5079658;28;20217;-82
2023/11/21 09:56:36;;;;;;;19.60;9.37;;;7.20;99.90;;;;;;5079688;28;20208;-83
2023/11/21 09:59:09;;;;;;;18.40;9.47;;;7.40;99.90;;;;;;5072277;28;20273;-82
2023/11/21 10:01:41;;;;;;;20.73;9.57;;;7.30;99.90;;;;;;5070544;28;20231;-83
2023/11/21 10:04:11;;;;;;;16.87;8.97;;;7.30;99.90;;;;;;5080155;28;20742;-83
2023/11/21 10:06:39;;;;;;;15.30;7.83;;;7.20;99.90;;;;;;5080379;28;20700;-82
2023/11/21 10:09:11;;;;;;;16.43;7.87;;;7.30;99.90;;;;;;5071770;28;20293;-82
2023/11/21 10:11:40;;;;;;;12.10;6.10;;;7.30;99.90;;;;;;5080205;28;20267;-82
2023/11/21 10:14:12;;;;;;;12.27;5.73;;;7.30;99.90;;;;;;5080219;28;20230;-81
2023/11/21 10:16:43;;;;;;;15.93;7.83;;;7.30;99.90;;;;;;5079231;28;20214;-80
2023/11/21 10:19:13;;;;;;;15.47;7.67;;;7.50;99.90;;;;;;5078419;28;20229;-81
2023/11/21 10:21:40;;;;;;;12.50;6.30;;;7.40;1.00;;;;;;5078362;28;20601;-82
2023/11/21 10:24:08;;;;;;;13.30;7.17;;;7.40;99.90;;;;;;5078395;28;20289;-81
2023/11/21 10:26:36;;;;;;;11.80;5.97;;;7.30;99.90;;;;;;5078251;28;20244;-81
2023/11/21 10:29:04;;;;;;;13.80;7.10;;;7.30;99.90;;;;;;5078330;28;20261;-81
2023/11/21 10:31:31;;;;;;;14.10;7.80;;;7.40;99.90;;;;;;5077503;28;20198;-81
2023/11/21 10:34:14;;;;;;;14.63;7.50;;;7.30;1.00;;;;;;5069581;28;20209;-81
2023/11/21 10:36:41;;;;;;;13.30;7.13;;;7.40;1.00;;;;;;5077050;28;20206;-80
2023/11/21 10:39:09;;;;;;;11.87;7.27;;;7.40;1.00;;;;;;5072921;28;20215;-80
2023/11/21 10:41:36;;;;;;;11.40;6.23;;;7.40;73.80;;;;;;5073283;28;20302;-81
2023/11/21 10:44:07;;;;;;;11.33;6.47;;;7.40;1.00;;;;;;5060638;28;20678;-81
2023/11/21 10:46:35;;;;;;;15.77;6.87;;;7.30;1.00;;;;;;5079220;28;20266;-82
2023/11/21 10:49:03;;;;;;;10.97;6.47;;;7.40;99.90;;;;;;5070495;28;20216;-80
2023/11/21 10:51:30;;;;;;;13.00;6.80;;;7.30;99.90;;;;;;5072741;28;20224;-81
2023/11/21 10:53:57;;;;;;;10.63;6.57;;;7.30;99.90;;;;;;5070305;28;20577;-82
2023/11/21 10:56:26;;;;;;;13.80;6.80;;;7.30;1.00;;;;;;5069090;28;20212;-81
2023/11/21 10:58:54;;;;;;;11.00;6.37;;;7.40;99.90;;;;;;5072418;28;20682;-82
2023/11/21 11:01:22;;;;;;;11.33;6.03;;;7.40;99.90;;;;;;5081254;28;20619;-81
2023/11/21 11:03:50;;;;;;;12.97;6.97;;;7.50;1.00;;;;;;5081137;28;20624;-80
2023/11/21 11:06:18;;;;;;;10.37;5.73;;;7.40;1.00;;;;;;5080800;28;20263;-80
2023/11/21 11:08:46;;;;;;;11.23;6.07;;;7.40;1.00;;;;;;5080553;28;20301;-81
2023/11/21 11:11:13;;;;;;;13.40;6.23;;;7.40;1.00;;;;;;5080468;28;20687;-80
2023/11/21 11:13:45;;;;;;;10.33;5.93;;;7.60;1.00;;;;;;5080836;28;20209;-80
2023/11/21 11:16:17;;;;;;;9.43;5.37;;;7.40;1.00;;;;;;5080479;28;20678;-80
2023/11/21 11:18:47;;;;;;;9.80;5.77;;;7.40;1.00;;;;;;5082575;28;20725;-79
2023/11/21 11:21:26;;;;;;;8.97;5.63;;;7.40;1.00;;;;;;5082050;28;20245;-80
2023/11/21 11:24:13;;;;;;;10.77;5.77;;;7.40;99.90;;;;;;5083013;28;20210;-79
2023/11/21 11:26:47;;;;;;;9.77;5.13;;;7.40;1.00;;;;;;5081884;28;20210;-80
2023/11/21 11:29:22;;;;;;;10.27;5.90;;;7.40;88.80;;;;;;5082185;28;20209;-81
2023/11/21 11:32:00;;;;;;;11.57;5.83;;;7.40;99.90;;;;;;5081397;28;20208;-81
2023/11/21 11:34:32;;;;;;;10.73;5.90;;;7.30;1.00;;;;;;5081863;28;20206;-80
2023/11/21 11:37:04;;;;;;;11.00;5.90;;;7.40;99.90;;;;;;5073708;28;20245;-80
2023/11/21 11:39:32;;;;;;;10.10;6.10;;;7.30;1.00;;;;;;5084023;28;20239;-80
2023/11/21 11:41:59;;;;;;;10.57;6.07;;;7.40;99.90;;;;;;5081569;28;20229;-81
2023/11/21 11:44:51;;;;;;;11.93;6.30;;;7.40;1.00;;;;;;5082337;28;20203;-82
2023/11/21 11:47:20;;;;;;;10.43;6.00;;;7.40;1.00;;;;;;5072142;28;20222;-82
2023/11/21 11:49:58;;;;;;;11.70;6.27;;;7.40;1.00;;;;;;5082266;28;20206;-81
2023/11/21 11:52:45;;;;;;;11.03;6.60;;;7.40;1.00;;;;;;5080899;28;20657;-81
2023/11/21 11:55:14;;;;;;;10.83;6.43;;;7.40;1.00;;;;;;5073712;28;20213;-81
2023/11/21 11:57:42;;;;;;;12.23;6.17;;;7.40;1.00;;;;;;5081437;28;20221;-81
2023/11/21 12:00:18;;;;;;;11.60;6.20;;;7.40;1.00;;;;;;5080844;28;20213;-80
2023/11/21 12:02:47;;;;;;;10.57;5.80;;;7.40;1.00;;;;;;5081079;28;20202;-81
2023/11/21 12:05:16;;;;;;;10.73;6.47;;;7.40;1.00;;;;;;5080902;28;20198;-81
2023/11/21 12:07:53;;;;;;;10.53;5.47;;;7.50;1.00;;;;;;5079216;28;20314;-80
2023/11/21 12:10:24;;;;;;;13.60;6.50;;;7.40;99.90;;;;;;5075278;28;20224;-80
2023/11/21 12:12:53;;;;;;;11.27;5.37;;;7.40;99.90;;;;;;5071133;28;20259;-79
2023/11/21 12:15:21;;;;;;;11.87;6.80;;;7.50;99.90;;;;;;5073873;28;20211;-80
2023/11/21 12:17:50;;;;;;;10.10;5.70;;;7.60;99.90;;;;;;5077118;28;20244;-80
2023/11/21 12:20:20;;;;;;;10.87;6.00;;;7.60;1.00;;;;;;5073820;28;20326;-80
2023/11/21 12:22:51;;;;;;;10.60;6.07;;;7.70;99.90;;;;;;5079696;28;20206;-80
2023/11/21 12:25:21;;;;;;;11.27;6.00;;;7.60;99.90;;;;;;5079414;28;20206;-80
2023/11/21 12:27:49;;;;;;;10.53;6.00;;;7.50;1.00;;;;;;5079030;28;20589;-79
2023/11/21 12:30:17;;;;;;;12.80;6.60;;;7.50;99.90;;;;;;5063459;28;20239;-82
2023/11/21 12:32:46;;;;;;;9.73;5.87;;;7.50;99.90;;;;;;5074732;28;20224;-81
2023/11/21 12:35:14;;;;;;;11.00;5.60;;;7.50;99.90;;;;;;5071631;28;20237;-83
2023/11/21 12:37:43;;;;;;;8.63;5.30;;;7.40;6.10;;;;;;5066502;28;20299;-83
2023/11/21 12:40:13;;;;;;;10.40;6.17;;;7.40;99.90;;;;;;5069678;28;20202;-79
2023/11/21 12:42:42;;;;;;;9.73;5.70;;;7.50;99.90;;;;;;5066971;28;20226;-80
2023/11/21 12:45:15;;;;;;;10.03;5.57;;;7.50;29.20;;;;;;5076448;28;20592;-79
2023/11/21 12:47:43;;;;;;;12.07;6.37;;;7.50;99.90;;;;;;5076192;28;20232;-80